sensor_id;sensor_type;location;lat;lon;timestamp;temperature;humidity
32502;DHT22;18952;52.516;13.460;2023-09-30T00:01:12;15.80;99.90
32502;DHT22;18952;52.516;13.460;2023-09-30T00:03:39;15.80;99.90
32502;DHT22;18952;52.516;13.460;2023-09-30T00:06:06;15.90;99.90
32502;DHT22;18952;52.516;13.460;2023-09-30T00:08:33;15.90;99.90
32502;DHT22;18952;52.516;13.460;2023-09-30T00:11:00;15.80;99.90
32502;DHT22;18952;52.516;13.460;2023-09-30T00:13:27;15.80;99.90
32502;DHT22;18952;52.516;13.460;2023-09-30T00:15:54;15.90;99.90
32502;DHT22;18952;52.516;13.460;2023-09-30T00:18:21;15.90;99.90
32502;DHT22;18952;52.516;13.460;2023-09-30T00:20:48;15.90;99.90
32502;DHT22;18952;52.516;13.460;2023-09-30T00:23:15;15.80;99.90
32502;DHT22;18952;52.516;13.460;2023-09-30T00:25:41;15.80;99.90
32502;DHT22;18952;52.516;13.460;2023-09-30T00:28:08;15.70;99.90
32502;DHT22;18952;52.516;13.460;2023-09-30T00:30:35;15.60;99.90
32502;DHT22;18952;52.516;13.460;2023-09-30T00:33:02;15.60;99.90
32502;DHT22;18952;52.516;13.460;2023-09-30T00:35:32;15.50;99.90
32502;DHT22;18952;52.516;13.460;2023-09-30T00:37:59;15.40;99.90
32502;DHT22;18952;52.516;13.460;2023-09-30T00:40:26;15.40;99.90
32502;DHT22;18952;52.516;13.460;2023-09-30T00:42:53;15.30;99.90
32502;DHT22;18952;52.516;13.460;2023-09-30T00:45:20;15.20;99.90
32502;DHT22;18952;52.516;13.460;2023-09-30T00:47:47;15.10;99.90
32502;DHT22;18952;52.516;13.460;2023-09-30T00:50:14;15.10;99.90
32502;DHT22;18952;52.516;13.460;2023-09-30T00:52:41;15.00;99.90
32502;DHT22;18952;52.516;13.460;2023-09-30T00:55:08;15.00;99.90
32502;DHT22;18952;52.516;13.460;2023-09-30T00:57:36;15.00;99.90
32502;DHT22;18952;52.516;13.460;2023-09-30T01:00:04;15.00;99.90
32502;DHT22;18952;52.516;13.460;2023-09-30T01:02:31;15.00;99.90
32502;DHT22;18952;52.516;13.460;2023-09-30T01:04:58;14.90;99.90
32502;DHT22;18952;52.516;13.460;2023-09-30T01:07:25;14.80;99.90
32502;DHT22;18952;52.516;13.460;2023-09-30T01:09:52;14.80;99.90
32502;DHT22;18952;52.516;13.460;2023-09-30T01:12:19;14.80;99.90
32502;DHT22;18952;52.516;13.460;2023-09-30T01:14:46;14.70;99.90
32502;DHT22;18952;52.516;13.460;2023-09-30T01:17:13;14.60;99.90
32502;DHT22;18952;52.516;13.460;2023-09-30T01:19:40;14.60;99.90
32502;DHT22;18952;52.516;13.460;2023-09-30T01:22:07;14.60;99.90
32502;DHT22;18952;52.516;13.460;2023-09-30T01:24:41;14.50;99.90
32502;DHT22;18952;52.516;13.460;2023-09-30T01:27:09;14.50;99.90
32502;DHT22;18952;52.516;13.460;2023-09-30T01:29:36;14.50;99.90
32502;DHT22;18952;52.516;13.460;2023-09-30T01:32:03;14.50;99.90
32502;DHT22;18952;52.516;13.460;2023-09-30T01:34:29;14.50;99.90
32502;DHT22;18952;52.516;13.460;2023-09-30T01:36:56;14.40;99.90
32502;DHT22;18952;52.516;13.460;2023-09-30T01:39:23;14.40;99.90
32502;DHT22;18952;52.516;13.460;2023-09-30T01:41:50;14.30;99.90
32502;DHT22;18952;52.516;13.460;2023-09-30T01:44:17;14.30;99.90
32502;DHT22;18952;52.516;13.460;2023-09-30T01:46:44;14.20;99.90
32502;DHT22;18952;52.516;13.460;2023-09-30T01:49:10;14.30;99.90
32502;DHT22;18952;52.516;13.460;2023-09-30T01:51:37;14.30;99.90
32502;DHT22;18952;52.516;13.460;2023-09-30T01:54:04;14.20;99.90
32502;DHT22;18952;52.516;13.460;2023-09-30T01:56:31;14.20;99.90
32502;DHT22;18952;52.516;13.460;2023-09-30T01:58:59;14.20;99.90
32502;DHT22;18952;52.516;13.460;2023-09-30T02:01:26;14.10;99.90
32502;DHT22;18952;52.516;13.460;2023-09-30T02:03:53;14.10;99.90
32502;DHT22;18952;52.516;13.460;2023-09-30T02:06:20;14.00;99.90
32502;DHT22;18952;52.516;13.460;2023-09-30T02:08:47;14.00;99.90
32502;DHT22;18952;52.516;13.460;2023-09-30T02:11:14;14.00;99.90
32502;DHT22;18952;52.516;13.460;2023-09-30T02:13:41;14.00;99.90
32502;DHT22;18952;52.516;13.460;2023-09-30T02:16:14;14.00;99.90
32502;DHT22;18952;52.516;13.460;2023-09-30T02:18:43;14.00;99.90
32502;DHT22;18952;52.516;13.460;2023-09-30T02:21:10;14.00;99.90
32502;DHT22;18952;52.516;13.460;2023-09-30T02:23:37;13.90;99.90
32502;DHT22;18952;52.516;13.460;2023-09-30T02:26:03;13.90;99.90
32502;DHT22;18952;52.516;13.460;2023-09-30T02:28:30;13.80;99.90
32502;DHT22;18952;52.516;13.460;2023-09-30T02:30:57;13.80;99.90
32502;DHT22;18952;52.516;13.460;2023-09-30T02:33:24;13.80;99.90
32502;DHT22;18952;52.516;13.460;2023-09-30T02:35:51;13.70;99.90
32502;DHT22;18952;52.516;13.460;2023-09-30T02:38:18;13.70;99.90
32502;DHT22;18952;52.516;13.460;2023-09-30T02:40:45;13.70;99.90
32502;DHT22;18952;52.516;13.460;2023-09-30T02:43:12;13.60;99.90
32502;DHT22;18952;52.516;13.460;2023-09-30T02:45:39;13.60;99.90
32502;DHT22;18952;52.516;13.460;2023-09-30T02:48:06;13.60;99.90
32502;DHT22;18952;52.516;13.460;2023-09-30T02:50:33;13.60;99.90
32502;DHT22;18952;52.516;13.460;2023-09-30T02:53:00;13.60;99.90
32502;DHT22;18952;52.516;13.460;2023-09-30T02:55:27;13.60;99.90
32502;DHT22;18952;52.516;13.460;2023-09-30T02:57:53;13.60;99.90
32502;DHT22;18952;52.516;13.460;2023-09-30T03:00:21;13.60;99.90
32502;DHT22;18952;52.516;13.460;2023-09-30T03:02:53;13.50;99.90
32502;DHT22;18952;52.516;13.460;2023-09-30T03:05:20;13.50;99.90
32502;DHT22;18952;52.516;13.460;2023-09-30T03:07:47;13.50;99.90
32502;DHT22;18952;52.516;13.460;2023-09-30T03:10:14;13.50;99.90
32502;DHT22;18952;52.516;13.460;2023-09-30T03:12:41;13.40;99.90
32502;DHT22;18952;52.516;13.460;2023-09-30T03:15:08;13.40;99.90
32502;DHT22;18952;52.516;13.460;2023-09-30T03:17:35;13.40;99.90
32502;DHT22;18952;52.516;13.460;2023-09-30T03:20:02;13.40;99.90
32502;DHT22;18952;52.516;13.460;2023-09-30T03:22:29;13.30;99.90
32502;DHT22;18952;52.516;13.460;2023-09-30T03:24:56;13.30;99.90
32502;DHT22;18952;52.516;13.460;2023-09-30T03:27:23;13.30;99.90
32502;DHT22;18952;52.516;13.460;2023-09-30T03:29:50;13.30;99.90
32502;DHT22;18952;52.516;13.460;2023-09-30T03:32:17;13.30;99.90
32502;DHT22;18952;52.516;13.460;2023-09-30T03:34:43;13.30;99.90
32502;DHT22;18952;52.516;13.460;2023-09-30T03:37:10;13.30;99.90
32502;DHT22;18952;52.516;13.460;2023-09-30T03:39:37;13.30;99.90
32502;DHT22;18952;52.516;13.460;2023-09-30T03:42:04;13.20;99.90
32502;DHT22;18952;52.516;13.460;2023-09-30T03:44:31;13.20;99.90
32502;DHT22;18952;52.516;13.460;2023-09-30T03:46:58;13.20;99.90
32502;DHT22;18952;52.516;13.460;2023-09-30T03:49:25;13.20;99.90
32502;DHT22;18952;52.516;13.460;2023-09-30T03:51:52;13.10;99.90
32502;DHT22;18952;52.516;13.460;2023-09-30T03:54:19;13.10;99.90
32502;DHT22;18952;52.516;13.460;2023-09-30T03:56:47;13.10;99.90
32502;DHT22;18952;52.516;13.460;2023-09-30T03:59:14;13.10;99.90
32502;DHT22;18952;52.516;13.460;2023-09-30T04:01:41;13.10;99.90
32502;DHT22;18952;52.516;13.460;2023-09-30T04:04:08;13.10;99.90
32502;DHT22;18952;52.516;13.460;2023-09-30T04:06:35;13.10;99.90
32502;DHT22;18952;52.516;13.460;2023-09-30T04:09:02;13.00;99.90
32502;DHT22;18952;52.516;13.460;2023-09-30T04:11:29;13.10;99.90
32502;DHT22;18952;52.516;13.460;2023-09-30T04:13:55;13.10;99.90
32502;DHT22;18952;52.516;13.460;2023-09-30T04:16:23;13.10;99.90
32502;DHT22;18952;52.516;13.460;2023-09-30T04:18:50;13.10;99.90
32502;DHT22;18952;52.516;13.460;2023-09-30T04:21:17;13.10;99.90
32502;DHT22;18952;52.516;13.460;2023-09-30T04:23:43;13.00;99.90
32502;DHT22;18952;52.516;13.460;2023-09-30T04:26:10;13.00;99.90
32502;DHT22;18952;52.516;13.460;2023-09-30T04:28:37;13.00;99.90
32502;DHT22;18952;52.516;13.460;2023-09-30T04:31:04;12.90;99.90
32502;DHT22;18952;52.516;13.460;2023-09-30T04:33:31;12.90;99.90
32502;DHT22;18952;52.516;13.460;2023-09-30T04:35:58;12.90;99.90
32502;DHT22;18952;52.516;13.460;2023-09-30T04:38:25;12.90;99.90
32502;DHT22;18952;52.516;13.460;2023-09-30T04:40:52;12.90;99.90
32502;DHT22;18952;52.516;13.460;2023-09-30T04:43:18;12.90;99.90
32502;DHT22;18952;52.516;13.460;2023-09-30T04:45:45;12.90;99.90
32502;DHT22;18952;52.516;13.460;2023-09-30T04:48:12;12.80;99.90
32502;DHT22;18952;52.516;13.460;2023-09-30T04:50:39;12.80;99.90
32502;DHT22;18952;52.516;13.460;2023-09-30T04:53:06;12.80;99.90
32502;DHT22;18952;52.516;13.460;2023-09-30T04:55:33;12.80;99.90
32502;DHT22;18952;52.516;13.460;2023-09-30T04:58:00;12.70;99.90
32502;DHT22;18952;52.516;13.460;2023-09-30T05:00:27;12.70;99.90
32502;DHT22;18952;52.516;13.460;2023-09-30T05:02:55;12.70;99.90
32502;DHT22;18952;52.516;13.460;2023-09-30T05:05:23;12.70;99.90
32502;DHT22;18952;52.516;13.460;2023-09-30T05:07:50;12.70;99.90
32502;DHT22;18952;52.516;13.460;2023-09-30T05:10:17;12.70;99.90
32502;DHT22;18952;52.516;13.460;2023-09-30T05:12:44;12.80;99.90
32502;DHT22;18952;52.516;13.460;2023-09-30T05:15:12;12.70;99.90
32502;DHT22;18952;52.516;13.460;2023-09-30T05:17:39;12.70;99.90
32502;DHT22;18952;52.516;13.460;2023-09-30T05:20:06;12.70;99.90
32502;DHT22;18952;52.516;13.460;2023-09-30T05:22:34;12.70;99.90
32502;DHT22;18952;52.516;13.460;2023-09-30T05:25:01;12.60;99.90
32502;DHT22;18952;52.516;13.460;2023-09-30T05:27:27;12.60;99.90
32502;DHT22;18952;52.516;13.460;2023-09-30T05:29:54;12.60;99.90
32502;DHT22;18952;52.516;13.460;2023-09-30T05:32:21;12.60;99.90
32502;DHT22;18952;52.516;13.460;2023-09-30T05:34:48;12.60;99.90
32502;DHT22;18952;52.516;13.460;2023-09-30T05:37:15;12.60;99.90
32502;DHT22;18952;52.516;13.460;2023-09-30T05:39:42;12.60;99.90
32502;DHT22;18952;52.516;13.460;2023-09-30T05:42:09;12.60;99.90
32502;DHT22;18952;52.516;13.460;2023-09-30T05:44:36;12.60;99.90
32502;DHT22;18952;52.516;13.460;2023-09-30T05:47:03;12.60;99.90
32502;DHT22;18952;52.516;13.460;2023-09-30T05:49:30;12.60;99.90
32502;DHT22;18952;52.516;13.460;2023-09-30T05:51:57;12.60;99.90
32502;DHT22;18952;52.516;13.460;2023-09-30T05:54:23;12.70;99.90
32502;DHT22;18952;52.516;13.460;2023-09-30T05:56:50;12.70;99.90
32502;DHT22;18952;52.516;13.460;2023-09-30T05:59:17;12.70;99.90
32502;DHT22;18952;52.516;13.460;2023-09-30T06:01:44;12.70;99.90
32502;DHT22;18952;52.516;13.460;2023-09-30T06:04:11;12.80;99.90
32502;DHT22;18952;52.516;13.460;2023-09-30T06:06:38;12.80;99.90
32502;DHT22;18952;52.516;13.460;2023-09-30T06:09:05;12.80;99.90
32502;DHT22;18952;52.516;13.460;2023-09-30T06:11:32;12.80;99.90
32502;DHT22;18952;52.516;13.460;2023-09-30T06:13:59;12.90;99.90
32502;DHT22;18952;52.516;13.460;2023-09-30T06:16:28;12.90;99.90
32502;DHT22;18952;52.516;13.460;2023-09-30T06:18:54;13.00;99.90
32502;DHT22;18952;52.516;13.460;2023-09-30T06:21:26;13.00;99.90
32502;DHT22;18952;52.516;13.460;2023-09-30T06:23:53;13.00;99.90
32502;DHT22;18952;52.516;13.460;2023-09-30T06:26:20;13.20;99.90
32502;DHT22;18952;52.516;13.460;2023-09-30T06:28:47;13.20;99.90
32502;DHT22;18952;52.516;13.460;2023-09-30T06:31:14;13.30;99.90
32502;DHT22;18952;52.516;13.460;2023-09-30T06:33:41;13.30;99.90
32502;DHT22;18952;52.516;13.460;2023-09-30T06:36:12;13.20;99.90
32502;DHT22;18952;52.516;13.460;2023-09-30T06:38:40;13.20;99.90
32502;DHT22;18952;52.516;13.460;2023-09-30T06:41:07;13.20;99.90
32502;DHT22;18952;52.516;13.460;2023-09-30T06:43:34;13.20;99.90
32502;DHT22;18952;52.516;13.460;2023-09-30T06:46:08;13.20;99.90
32502;DHT22;18952;52.516;13.460;2023-09-30T06:48:36;13.30;99.90
32502;DHT22;18952;52.516;13.460;2023-09-30T06:51:03;13.30;99.90
32502;DHT22;18952;52.516;13.460;2023-09-30T06:53:30;13.30;99.90
32502;DHT22;18952;52.516;13.460;2023-09-30T06:55:57;13.40;99.90
32502;DHT22;18952;52.516;13.460;2023-09-30T06:58:24;13.40;99.90
32502;DHT22;18952;52.516;13.460;2023-09-30T07:00:52;13.50;99.90
32502;DHT22;18952;52.516;13.460;2023-09-30T07:03:19;13.60;99.90
32502;DHT22;18952;52.516;13.460;2023-09-30T07:05:50;13.60;99.90
32502;DHT22;18952;52.516;13.460;2023-09-30T07:08:17;13.60;99.90
32502;DHT22;18952;52.516;13.460;2023-09-30T07:10:45;13.70;99.90
32502;DHT22;18952;52.516;13.460;2023-09-30T07:13:12;13.60;99.90
32502;DHT22;18952;52.516;13.460;2023-09-30T07:15:39;13.60;99.90
32502;DHT22;18952;52.516;13.460;2023-09-30T07:18:06;13.60;99.90
32502;DHT22;18952;52.516;13.460;2023-09-30T07:20:33;13.70;99.90
32502;DHT22;18952;52.516;13.460;2023-09-30T07:23:01;13.70;99.90
32502;DHT22;18952;52.516;13.460;2023-09-30T07:25:44;13.70;99.90
32502;DHT22;18952;52.516;13.460;2023-09-30T07:28:11;13.80;99.90
32502;DHT22;18952;52.516;13.460;2023-09-30T07:30:38;13.80;99.90
32502;DHT22;18952;52.516;13.460;2023-09-30T07:33:06;13.90;99.90
32502;DHT22;18952;52.516;13.460;2023-09-30T07:35:33;14.00;99.90
32502;DHT22;18952;52.516;13.460;2023-09-30T07:38:00;14.00;99.90
32502;DHT22;18952;52.516;13.460;2023-09-30T07:40:27;13.90;99.90
32502;DHT22;18952;52.516;13.460;2023-09-30T07:42:56;14.00;99.90
32502;DHT22;18952;52.516;13.460;2023-09-30T07:45:23;14.00;99.90
32502;DHT22;18952;52.516;13.460;2023-09-30T07:47:50;14.00;99.90
32502;DHT22;18952;52.516;13.460;2023-09-30T07:50:17;14.00;99.90
32502;DHT22;18952;52.516;13.460;2023-09-30T07:52:44;14.10;99.90
32502;DHT22;18952;52.516;13.460;2023-09-30T07:55:11;14.10;99.90
32502;DHT22;18952;52.516;13.460;2023-09-30T07:57:40;14.10;99.90
32502;DHT22;18952;52.516;13.460;2023-09-30T08:00:08;14.20;99.90
32502;DHT22;18952;52.516;13.460;2023-09-30T08:02:35;14.30;99.90
32502;DHT22;18952;52.516;13.460;2023-09-30T08:05:03;14.30;99.90
32502;DHT22;18952;52.516;13.460;2023-09-30T08:07:30;14.40;99.90
32502;DHT22;18952;52.516;13.460;2023-09-30T08:09:56;14.40;99.90
32502;DHT22;18952;52.516;13.460;2023-09-30T08:12:23;14.40;99.90
32502;DHT22;18952;52.516;13.460;2023-09-30T08:14:50;14.40;99.90
32502;DHT22;18952;52.516;13.460;2023-09-30T08:17:17;14.50;99.90
32502;DHT22;18952;52.516;13.460;2023-09-30T08:19:44;14.40;99.90
32502;DHT22;18952;52.516;13.460;2023-09-30T08:22:11;14.40;99.90
32502;DHT22;18952;52.516;13.460;2023-09-30T08:24:38;14.40;99.90
32502;DHT22;18952;52.516;13.460;2023-09-30T08:27:05;14.50;99.90
32502;DHT22;18952;52.516;13.460;2023-09-30T08:29:35;14.60;99.90
32502;DHT22;18952;52.516;13.460;2023-09-30T08:32:02;14.70;99.90
32502;DHT22;18952;52.516;13.460;2023-09-30T08:34:30;14.80;99.90
32502;DHT22;18952;52.516;13.460;2023-09-30T08:36:57;14.90;99.90
32502;DHT22;18952;52.516;13.460;2023-09-30T08:39:25;14.90;99.90
32502;DHT22;18952;52.516;13.460;2023-09-30T08:41:52;15.00;99.90
32502;DHT22;18952;52.516;13.460;2023-09-30T08:44:20;15.00;99.90
32502;DHT22;18952;52.516;13.460;2023-09-30T08:46:48;15.00;99.90
32502;DHT22;18952;52.516;13.460;2023-09-30T08:49:15;15.00;99.90
32502;DHT22;18952;52.516;13.460;2023-09-30T08:51:43;15.00;99.90
32502;DHT22;18952;52.516;13.460;2023-09-30T08:54:10;15.00;99.90
32502;DHT22;18952;52.516;13.460;2023-09-30T08:56:37;15.10;99.90
32502;DHT22;18952;52.516;13.460;2023-09-30T08:59:07;15.10;99.90
32502;DHT22;18952;52.516;13.460;2023-09-30T09:01:36;15.10;99.90
32502;DHT22;18952;52.516;13.460;2023-09-30T09:04:04;15.10;99.90
32502;DHT22;18952;52.516;13.460;2023-09-30T09:06:33;15.00;99.90
32502;DHT22;18952;52.516;13.460;2023-09-30T09:09:13;15.00;99.90
32502;DHT22;18952;52.516;13.460;2023-09-30T09:11:40;15.00;99.90
32502;DHT22;18952;52.516;13.460;2023-09-30T09:14:07;15.00;99.90
32502;DHT22;18952;52.516;13.460;2023-09-30T09:16:34;15.00;99.90
32502;DHT22;18952;52.516;13.460;2023-09-30T09:19:21;15.00;99.90
32502;DHT22;18952;52.516;13.460;2023-09-30T09:21:59;15.00;99.90
32502;DHT22;18952;52.516;13.460;2023-09-30T09:24:31;15.10;99.90
32502;DHT22;18952;52.516;13.460;2023-09-30T09:27:11;15.20;99.90
32502;DHT22;18952;52.516;13.460;2023-09-30T09:29:39;15.30;99.90
32502;DHT22;18952;52.516;13.460;2023-09-30T09:32:11;15.30;99.90
32502;DHT22;18952;52.516;13.460;2023-09-30T09:34:39;15.40;99.90
32502;DHT22;18952;52.516;13.460;2023-09-30T09:37:21;15.40;99.90
32502;DHT22;18952;52.516;13.460;2023-09-30T09:39:56;15.40;99.90
32502;DHT22;18952;52.516;13.460;2023-09-30T09:42:24;15.50;99.90
32502;DHT22;18952;52.516;13.460;2023-09-30T09:44:55;15.50;99.90
32502;DHT22;18952;52.516;13.460;2023-09-30T09:47:23;15.50;99.90
32502;DHT22;18952;52.516;13.460;2023-09-30T09:49:51;15.70;99.90
32502;DHT22;18952;52.516;13.460;2023-09-30T09:52:19;15.70;99.90
32502;DHT22;18952;52.516;13.460;2023-09-30T09:54:46;15.80;99.90
32502;DHT22;18952;52.516;13.460;2023-09-30T09:57:14;15.80;99.90
32502;DHT22;18952;52.516;13.460;2023-09-30T09:59:43;15.80;99.90
32502;DHT22;18952;52.516;13.460;2023-09-30T10:02:11;15.90;99.90
32502;DHT22;18952;52.516;13.460;2023-09-30T10:04:38;15.90;99.90
32502;DHT22;18952;52.516;13.460;2023-09-30T10:07:05;15.90;99.90
32502;DHT22;18952;52.516;13.460;2023-09-30T10:09:35;16.00;99.90
32502;DHT22;18952;52.516;13.460;2023-09-30T10:12:02;16.10;99.90
32502;DHT22;18952;52.516;13.460;2023-09-30T10:14:33;16.20;99.90
32502;DHT22;18952;52.516;13.460;2023-09-30T10:17:00;16.30;99.90
32502;DHT22;18952;52.516;13.460;2023-09-30T10:19:27;16.40;99.90
32502;DHT22;18952;52.516;13.460;2023-09-30T10:24:43;16.50;99.90
32502;DHT22;18952;52.516;13.460;2023-09-30T10:35:20;16.50;99.90
32502;DHT22;18952;52.516;13.460;2023-09-30T10:37:48;16.50;99.90
32502;DHT22;18952;52.516;13.460;2023-09-30T10:40:30;16.50;99.90
32502;DHT22;18952;52.516;13.460;2023-09-30T10:42:57;16.50;99.90
32502;DHT22;18952;52.516;13.460;2023-09-30T10:48:42;16.70;99.90
32502;DHT22;18952;52.516;13.460;2023-09-30T10:51:13;16.90;99.90
32502;DHT22;18952;52.516;13.460;2023-09-30T10:53:43;17.00;99.90
32502;DHT22;18952;52.516;13.460;2023-09-30T10:56:10;17.10;99.90
32502;DHT22;18952;52.516;13.460;2023-09-30T10:58:50;17.10;99.90
32502;DHT22;18952;52.516;13.460;2023-09-30T11:01:18;17.00;99.90
32502;DHT22;18952;52.516;13.460;2023-09-30T11:03:47;16.90;99.90
32502;DHT22;18952;52.516;13.460;2023-09-30T11:06:15;17.00;99.90
32502;DHT22;18952;52.516;13.460;2023-09-30T11:08:55;17.10;99.90
32502;DHT22;18952;52.516;13.460;2023-09-30T11:11:36;17.10;99.90
32502;DHT22;18952;52.516;13.460;2023-09-30T11:14:16;17.20;99.90
32502;DHT22;18952;52.516;13.460;2023-09-30T11:16:43;17.30;99.90
32502;DHT22;18952;52.516;13.460;2023-09-30T11:19:11;17.30;99.90
32502;DHT22;18952;52.516;13.460;2023-09-30T11:21:42;17.30;99.90
32502;DHT22;18952;52.516;13.460;2023-09-30T11:24:09;17.40;99.90
32502;DHT22;18952;52.516;13.460;2023-09-30T11:26:37;17.50;99.90
32502;DHT22;18952;52.516;13.460;2023-09-30T11:29:12;17.50;99.90
32502;DHT22;18952;52.516;13.460;2023-09-30T11:31:40;17.60;99.90
32502;DHT22;18952;52.516;13.460;2023-09-30T11:34:07;17.60;99.90
32502;DHT22;18952;52.516;13.460;2023-09-30T11:36:36;17.60;99.90
32502;DHT22;18952;52.516;13.460;2023-09-30T11:39:03;17.70;99.90
32502;DHT22;18952;52.516;13.460;2023-09-30T11:41:42;17.60;99.90
32502;DHT22;18952;52.516;13.460;2023-09-30T11:44:10;17.50;99.90
32502;DHT22;18952;52.516;13.460;2023-09-30T11:49:40;17.60;99.90
32502;DHT22;18952;52.516;13.460;2023-09-30T11:52:12;17.60;99.90
32502;DHT22;18952;52.516;13.460;2023-09-30T11:54:41;17.70;99.90
32502;DHT22;18952;52.516;13.460;2023-09-30T11:57:10;17.80;99.90
32502;DHT22;18952;52.516;13.460;2023-09-30T11:59:38;17.80;99.90
32502;DHT22;18952;52.516;13.460;2023-09-30T12:02:05;17.90;99.90
32502;DHT22;18952;52.516;13.460;2023-09-30T12:04:41;17.90;99.90
32502;DHT22;18952;52.516;13.460;2023-09-30T12:07:09;17.90;99.90
32502;DHT22;18952;52.516;13.460;2023-09-30T12:09:36;18.10;99.90
32502;DHT22;18952;52.516;13.460;2023-09-30T12:12:04;18.20;99.90
32502;DHT22;18952;52.516;13.460;2023-09-30T12:14:31;18.20;99.90
32502;DHT22;18952;52.516;13.460;2023-09-30T12:16:58;18.30;99.90
32502;DHT22;18952;52.516;13.460;2023-09-30T12:19:28;18.40;99.90
32502;DHT22;18952;52.516;13.460;2023-09-30T12:21:55;18.60;99.90
32502;DHT22;18952;52.516;13.460;2023-09-30T12:24:21;18.70;99.90
32502;DHT22;18952;52.516;13.460;2023-09-30T12:26:50;18.80;99.90
32502;DHT22;18952;52.516;13.460;2023-09-30T12:29:19;18.90;99.90
32502;DHT22;18952;52.516;13.460;2023-09-30T12:31:46;19.00;99.90
32502;DHT22;18952;52.516;13.460;2023-09-30T12:34:20;19.10;99.90
32502;DHT22;18952;52.516;13.460;2023-09-30T12:36:47;19.10;99.90
32502;DHT22;18952;52.516;13.460;2023-09-30T12:39:13;19.20;99.90
32502;DHT22;18952;52.516;13.460;2023-09-30T12:41:42;19.20;99.90
32502;DHT22;18952;52.516;13.460;2023-09-30T12:44:12;19.40;99.90
32502;DHT22;18952;52.516;13.460;2023-09-30T12:46:39;19.60;99.90
32502;DHT22;18952;52.516;13.460;2023-09-30T12:49:06;19.50;99.90
32502;DHT22;18952;52.516;13.460;2023-09-30T12:51:34;19.40;99.90
32502;DHT22;18952;52.516;13.460;2023-09-30T12:54:02;19.50;99.90
32502;DHT22;18952;52.516;13.460;2023-09-30T12:56:29;19.50;99.90
32502;DHT22;18952;52.516;13.460;2023-09-30T12:58:57;19.40;99.90
32502;DHT22;18952;52.516;13.460;2023-09-30T13:01:25;19.50;99.90
32502;DHT22;18952;52.516;13.460;2023-09-30T13:03:52;19.60;99.90
32502;DHT22;18952;52.516;13.460;2023-09-30T13:06:19;19.70;99.90
32502;DHT22;18952;52.516;13.460;2023-09-30T13:08:46;19.70;99.90
32502;DHT22;18952;52.516;13.460;2023-09-30T13:11:14;19.80;99.90
32502;DHT22;18952;52.516;13.460;2023-09-30T13:13:41;19.80;99.90
32502;DHT22;18952;52.516;13.460;2023-09-30T13:16:10;19.90;99.90
32502;DHT22;18952;52.516;13.460;2023-09-30T13:18:38;20.00;99.90
32502;DHT22;18952;52.516;13.460;2023-09-30T13:21:06;20.00;99.90
32502;DHT22;18952;52.516;13.460;2023-09-30T13:23:33;20.00;99.90
32502;DHT22;18952;52.516;13.460;2023-09-30T13:26:01;20.20;99.90
32502;DHT22;18952;52.516;13.460;2023-09-30T13:28:28;20.30;99.90
32502;DHT22;18952;52.516;13.460;2023-09-30T13:30:55;20.10;99.90
32502;DHT22;18952;52.516;13.460;2023-09-30T13:33:22;20.20;99.90
32502;DHT22;18952;52.516;13.460;2023-09-30T13:35:49;20.30;99.90
32502;DHT22;18952;52.516;13.460;2023-09-30T13:38:16;20.30;99.90
32502;DHT22;18952;52.516;13.460;2023-09-30T13:40:43;20.30;99.90
32502;DHT22;18952;52.516;13.460;2023-09-30T13:43:10;20.20;99.90
32502;DHT22;18952;52.516;13.460;2023-09-30T13:45:37;20.10;99.90
32502;DHT22;18952;52.516;13.460;2023-09-30T13:48:04;20.10;99.90
32502;DHT22;18952;52.516;13.460;2023-09-30T13:50:32;20.10;99.70
32502;DHT22;18952;52.516;13.460;2023-09-30T13:52:58;20.20;99.50
32502;DHT22;18952;52.516;13.460;2023-09-30T13:55:25;20.30;98.90
32502;DHT22;18952;52.516;13.460;2023-09-30T13:57:52;20.30;98.80
32502;DHT22;18952;52.516;13.460;2023-09-30T14:00:19;20.30;98.50
32502;DHT22;18952;52.516;13.460;2023-09-30T14:02:46;20.30;98.60
32502;DHT22;18952;52.516;13.460;2023-09-30T14:05:13;20.20;98.30
32502;DHT22;18952;52.516;13.460;2023-09-30T14:07:40;20.00;98.60
32502;DHT22;18952;52.516;13.460;2023-09-30T14:10:07;19.90;98.90
32502;DHT22;18952;52.516;13.460;2023-09-30T14:12:34;20.00;98.80
32502;DHT22;18952;52.516;13.460;2023-09-30T14:15:01;20.10;98.60
32502;DHT22;18952;52.516;13.460;2023-09-30T14:17:28;20.20;98.60
32502;DHT22;18952;52.516;13.460;2023-09-30T14:19:56;20.40;98.00
32502;DHT22;18952;52.516;13.460;2023-09-30T14:22:23;20.40;97.30
32502;DHT22;18952;52.516;13.460;2023-09-30T14:24:50;20.20;97.20
32502;DHT22;18952;52.516;13.460;2023-09-30T14:27:16;20.00;97.40
32502;DHT22;18952;52.516;13.460;2023-09-30T14:29:43;20.10;97.10
32502;DHT22;18952;52.516;13.460;2023-09-30T14:32:10;20.10;96.90
32502;DHT22;18952;52.516;13.460;2023-09-30T14:34:37;20.00;96.70
32502;DHT22;18952;52.516;13.460;2023-09-30T14:37:04;20.00;96.30
32502;DHT22;18952;52.516;13.460;2023-09-30T14:39:31;20.20;96.20
32502;DHT22;18952;52.516;13.460;2023-09-30T14:41:58;20.30;95.50
32502;DHT22;18952;52.516;13.460;2023-09-30T14:44:24;20.10;94.90
32502;DHT22;18952;52.516;13.460;2023-09-30T14:46:51;19.90;94.90
32502;DHT22;18952;52.516;13.460;2023-09-30T14:49:18;19.90;94.70
32502;DHT22;18952;52.516;13.460;2023-09-30T14:51:45;19.80;94.70
32502;DHT22;18952;52.516;13.460;2023-09-30T14:54:12;19.80;94.90
32502;DHT22;18952;52.516;13.460;2023-09-30T14:56:39;19.80;95.00
32502;DHT22;18952;52.516;13.460;2023-09-30T14:59:06;19.80;95.30
32502;DHT22;18952;52.516;13.460;2023-09-30T15:01:33;19.70;95.50
32502;DHT22;18952;52.516;13.460;2023-09-30T15:04:00;19.60;95.80
32502;DHT22;18952;52.516;13.460;2023-09-30T15:06:27;19.50;96.10
32502;DHT22;18952;52.516;13.460;2023-09-30T15:08:54;19.50;96.30
32502;DHT22;18952;52.516;13.460;2023-09-30T15:11:21;19.30;96.50
32502;DHT22;18952;52.516;13.460;2023-09-30T15:13:48;19.20;97.00
32502;DHT22;18952;52.516;13.460;2023-09-30T15:16:19;19.30;97.00
32502;DHT22;18952;52.516;13.460;2023-09-30T15:18:47;19.20;97.00
32502;DHT22;18952;52.516;13.460;2023-09-30T15:21:15;19.30;97.00
32502;DHT22;18952;52.516;13.460;2023-09-30T15:23:42;19.30;97.00
32502;DHT22;18952;52.516;13.460;2023-09-30T15:26:09;19.20;97.10
32502;DHT22;18952;52.516;13.460;2023-09-30T15:28:37;19.20;97.00
32502;DHT22;18952;52.516;13.460;2023-09-30T15:31:04;19.20;97.20
32502;DHT22;18952;52.516;13.460;2023-09-30T15:33:31;19.20;97.20
32502;DHT22;18952;52.516;13.460;2023-09-30T15:35:57;19.20;97.00